Time;durP1;ratioP1;P1;durP2;ratioP2;P2;SDS_P1;SDS_P2;PMS_P1;PMS_P2;Temp;Humidity;BMP_temperature;BMP_pressure;BME280_temperature;BME280_humidity;BME280_pressure;Samples;Min_cycle;Max_cycle;Signal;HPM_P1;HPM_P2
2021/03/26 00:02:17;;;;;;;220.45;74.10;;;0.00;99.90;;;;;;4411978;28;658924;-84
2021/03/26 00:05:06;;;;;;;210.02;71.32;;;-0.10;99.90;;;;;;4432670;28;658545;-84
2021/03/26 00:07:53;;;;;;;228.27;74.90;;;-0.10;99.90;;;;;;4400372;28;659912;-85
2021/03/26 00:10:40;;;;;;;241.80;76.72;;;-0.10;99.90;;;;;;4440953;28;660511;-84
2021/03/26 00:13:28;;;;;;;284.77;88.57;;;-0.20;99.90;;;;;;4398826;28;659721;-84
2021/03/26 00:16:15;;;;;;;219.33;74.67;;;-0.10;99.90;;;;;;4429184;28;660388;-84
2021/03/26 00:19:02;;;;;;;211.87;71.63;;;-0.10;99.90;;;;;;4403265;28;659564;-84
2021/03/26 00:21:49;;;;;;;219.23;73.20;;;-0.10;99.90;;;;;;4446240;28;660258;-84
2021/03/26 00:24:36;;;;;;;210.03;71.13;;;-0.10;99.90;;;;;;4440589;28;659643;-84
2021/03/26 00:27:23;;;;;;;202.37;69.40;;;-0.10;99.90;;;;;;4408774;28;659881;-84
2021/03/26 00:30:13;;;;;;;203.20;68.03;;;-0.10;99.90;;;;;;4428091;28;659951;-84
2021/03/26 00:33:00;;;;;;;199.40;67.77;;;-0.10;99.90;;;;;;4395967;28;660292;-84
2021/03/26 00:35:47;;;;;;;200.93;69.67;;;-0.20;99.90;;;;;;4414154;28;659994;-84
2021/03/26 00:38:34;;;;;;;224.20;70.43;;;-0.20;99.90;;;;;;4440723;28;659841;-84
2021/03/26 00:41:21;;;;;;;217.07;73.30;;;-0.20;99.90;;;;;;4435938;28;659878;-84
2021/03/26 00:44:08;;;;;;;222.20;71.93;;;-0.20;99.90;;;;;;4404610;28;659728;-84
2021/03/26 00:46:56;;;;;;;214.33;72.63;;;-0.10;99.90;;;;;;4444739;28;660419;-84
2021/03/26 00:49:43;;;;;;;196.13;67.20;;;-0.10;99.90;;;;;;4421896;28;659838;-84
2021/03/26 00:52:30;;;;;;;193.63;70.50;;;-0.10;99.90;;;;;;4432952;28;659744;-84
2021/03/26 00:55:17;;;;;;;191.93;66.27;;;-0.10;99.90;;;;;;4415552;28;659892;-84
2021/03/26 00:58:04;;;;;;;207.17;66.90;;;-0.20;99.90;;;;;;4416437;28;661282;-83
2021/03/26 01:00:52;;;;;;;213.53;68.93;;;-0.20;99.90;;;;;;4416369;28;659875;-84
2021/03/26 01:03:39;;;;;;;201.20;68.30;;;-0.20;99.90;;;;;;4407352;28;659922;-84
2021/03/26 01:06:26;;;;;;;192.93;64.53;;;-0.20;99.90;;;;;;4422314;28;660082;-84
2021/03/26 01:09:14;;;;;;;184.30;62.53;;;-0.20;99.90;;;;;;4417450;28;660018;-85
2021/03/26 01:12:01;;;;;;;211.90;69.63;;;-0.20;99.90;;;;;;4442372;28;659671;-84
2021/03/26 01:14:48;;;;;;;194.33;64.63;;;-0.20;99.90;;;;;;4415318;28;659918;-84
2021/03/26 01:17:34;;;;;;;195.43;64.43;;;-0.20;99.90;;;;;;4428160;28;660179;-84
2021/03/26 01:20:24;;;;;;;199.53;65.90;;;-0.20;99.90;;;;;;4429110;28;659789;-84
2021/03/26 01:23:11;;;;;;;198.17;68.77;;;-0.20;99.90;;;;;;4422374;28;660189;-84
2021/03/26 01:25:58;;;;;;;200.43;67.57;;;-0.20;99.90;;;;;;4415194;28;659896;-84
2021/03/26 01:28:45;;;;;;;206.43;67.27;;;-0.20;99.90;;;;;;4445936;28;659865;-84
2021/03/26 01:31:32;;;;;;;190.60;66.20;;;-0.20;99.90;;;;;;4408065;28;660193;-84
2021/03/26 01:34:20;;;;;;;192.87;63.50;;;-0.20;99.90;;;;;;4422351;28;660398;-85
2021/03/26 01:37:08;;;;;;;191.60;62.43;;;-0.20;99.90;;;;;;4424840;28;659261;-84
2021/03/26 01:39:55;;;;;;;194.47;64.77;;;-0.20;99.90;;;;;;4419114;28;660116;-84
2021/03/26 01:42:42;;;;;;;187.45;63.38;;;-0.20;99.90;;;;;;4416775;28;660030;-85
2021/03/26 01:45:29;;;;;;;197.60;64.00;;;-0.20;99.90;;;;;;4438882;28;660271;-84
2021/03/26 01:48:21;;;;;;;186.17;61.93;;;-0.20;99.90;;;;;;4430348;28;659518;-84
2021/03/26 01:51:09;;;;;;;194.25;65.88;;;-0.20;99.90;;;;;;4397165;28;660811;-84
2021/03/26 01:53:58;;;;;;;204.33;68.77;;;-0.30;99.90;;;;;;4442729;28;659346;-84
2021/03/26 01:56:45;;;;;;;198.90;67.20;;;-0.30;99.90;;;;;;4410061;28;660606;-85
2021/03/26 01:59:32;;;;;;;207.07;66.37;;;-0.30;99.90;;;;;;4412220;28;660169;-85
2021/03/26 02:02:20;;;;;;;209.03;68.60;;;-0.30;99.90;;;;;;4426947;28;659822;-85
2021/03/26 02:05:09;;;;;;;204.23;67.73;;;-0.30;99.90;;;;;;4423163;28;659879;-85
2021/03/26 02:07:56;;;;;;;199.93;67.47;;;-0.30;99.90;;;;;;4420142;28;660163;-84
2021/03/26 02:10:44;;;;;;;211.73;66.33;;;-0.30;99.90;;;;;;4404461;28;659986;-85
2021/03/26 02:13:32;;;;;;;204.05;67.78;;;-0.30;99.90;;;;;;4411795;28;660070;-84
2021/03/26 02:16:20;;;;;;;204.10;69.17;;;-0.30;99.90;;;;;;4383462;28;660775;-84
2021/03/26 02:19:09;;;;;;;199.33;66.37;;;-0.30;99.90;;;;;;4440708;28;660265;-85
2021/03/26 02:21:56;;;;;;;199.90;64.97;;;-0.30;99.90;;;;;;4415137;28;660521;-85
2021/03/26 02:24:44;;;;;;;191.03;62.70;;;-0.30;99.90;;;;;;4404190;28;659531;-84
2021/03/26 02:27:32;;;;;;;188.17;61.87;;;-0.30;99.90;;;;;;4426998;28;660076;-84
2021/03/26 02:30:22;;;;;;;169.52;60.65;;;-0.30;99.90;;;;;;4398195;28;659917;-84
2021/03/26 02:33:09;;;;;;;172.10;59.23;;;-0.30;99.90;;;;;;4415041;28;659975;-85
2021/03/26 02:36:28;;;;;;;176.57;56.93;;;-0.30;99.90;;;;;;4446496;28;660174;-84
2021/03/26 02:39:24;;;;;;;175.27;59.33;;;-0.20;99.90;;;;;;4411321;28;660370;-84
2021/03/26 02:42:23;;;;;;;178.47;59.93;;;-0.20;99.90;;;;;;4400493;28;659689;-85
2021/03/26 02:45:13;;;;;;;175.57;59.80;;;-0.20;99.90;;;;;;4392624;28;660112;-84
2021/03/26 02:48:01;;;;;;;189.23;58.97;;;-0.20;99.90;;;;;;4412037;28;660102;-84
2021/03/26 02:50:52;;;;;;;179.27;58.90;;;-0.20;99.90;;;;;;4421257;28;659937;-84
2021/03/26 02:53:44;;;;;;;187.17;61.53;;;-0.20;99.90;;;;;;4407757;28;660587;-85
2021/03/26 02:56:33;;;;;;;201.87;61.97;;;-0.20;99.90;;;;;;4415590;28;659841;-85
2021/03/26 02:59:23;;;;;;;179.93;60.70;;;-0.20;99.90;;;;;;4412330;28;660631;-84
2021/03/26 03:02:11;;;;;;;189.20;60.67;;;-0.20;99.90;;;;;;4414071;28;659932;-85
2021/03/26 03:05:02;;;;;;;176.10;56.10;;;-0.20;99.90;;;;;;4405382;28;660584;-84
2021/03/26 03:07:54;;;;;;;186.80;60.77;;;-0.20;99.90;;;;;;4400168;28;660006;-84
2021/03/26 03:10:42;;;;;;;189.43;59.63;;;-0.20;99.90;;;;;;4401233;28;660169;-84
2021/03/26 03:13:33;;;;;;;173.20;57.53;;;-0.20;99.90;;;;;;4392868;28;659849;-85
2021/03/26 03:16:22;;;;;;;176.80;56.20;;;-0.10;99.90;;;;;;4402623;28;660464;-84
2021/03/26 03:19:11;;;;;;;167.63;55.33;;;-0.10;99.90;;;;;;4401622;28;660115;-84
2021/03/26 03:22:00;;;;;;;155.57;53.20;;;-0.10;99.90;;;;;;4390395;28;660111;-85
2021/03/26 03:24:47;;;;;;;167.57;54.17;;;-0.10;99.90;;;;;;4422058;28;659725;-85
2021/03/26 03:27:40;;;;;;;165.23;54.90;;;-0.10;99.90;;;;;;4439588;28;659863;-84
2021/03/26 03:30:29;;;;;;;163.43;54.97;;;-0.10;99.90;;;;;;4377645;28;659919;-84
2021/03/26 03:33:21;;;;;;;170.13;54.47;;;-0.10;99.90;;;;;;4434160;28;660713;-84
2021/03/26 03:36:10;;;;;;;158.37;52.53;;;-0.10;99.90;;;;;;4406005;28;660484;-84
2021/03/26 03:38:58;;;;;;;158.33;53.93;;;-0.10;99.90;;;;;;4410209;28;660105;-84
2021/03/26 03:41:46;;;;;;;162.27;50.63;;;-0.10;99.90;;;;;;4438538;28;660852;-84
2021/03/26 03:44:37;;;;;;;161.93;51.97;;;-0.10;99.90;;;;;;4406550;28;659741;-85
2021/03/26 03:47:29;;;;;;;165.27;52.13;;;-0.10;99.90;;;;;;4413439;28;660792;-84
2021/03/26 03:50:24;;;;;;;160.07;51.93;;;-0.10;99.90;;;;;;4407031;28;659835;-84
2021/03/26 03:53:13;;;;;;;157.07;51.43;;;-0.10;99.90;;;;;;4398588;28;659628;-84
2021/03/26 03:56:03;;;;;;;146.63;50.55;;;-0.10;99.90;;;;;;4426199;28;659824;-85
2021/03/26 03:58:52;;;;;;;152.80;52.40;;;0.00;99.90;;;;;;4401320;28;659674;-85
2021/03/26 04:01:43;;;;;;;160.30;52.23;;;0.00;99.90;;;;;;4426325;28;658947;-85
2021/03/26 04:04:34;;;;;;;158.40;50.87;;;0.00;99.90;;;;;;4391559;28;658887;-84
2021/03/26 04:07:26;;;;;;;153.17;50.93;;;0.00;99.90;;;;;;4403926;28;658683;-84
2021/03/26 04:10:15;;;;;;;163.60;53.37;;;0.00;99.90;;;;;;4420160;28;658692;-84
2021/03/26 04:13:08;;;;;;;163.98;52.50;;;0.00;99.90;;;;;;4414841;28;658973;-84
2021/03/26 04:15:57;;;;;;;150.67;51.03;;;0.10;99.90;;;;;;4412830;28;658790;-84
2021/03/26 04:18:46;;;;;;;162.57;51.57;;;0.10;99.90;;;;;;4394053;28;658348;-84
2021/03/26 04:21:35;;;;;;;163.40;52.80;;;0.10;99.90;;;;;;4399203;28;658746;-84
2021/03/26 04:24:26;;;;;;;145.20;49.50;;;0.10;99.90;;;;;;4443639;28;658675;-85
2021/03/26 04:27:16;;;;;;;163.23;51.78;;;0.10;99.90;;;;;;4426687;28;658814;-84
2021/03/26 04:30:07;;;;;;;170.97;52.97;;;0.00;99.90;;;;;;4404512;28;659124;-85
2021/03/26 04:32:54;;;;;;;151.80;51.43;;;0.10;99.90;;;;;;4412727;28;659859;-85
2021/03/26 04:35:41;;;;;;;168.33;51.63;;;0.00;99.90;;;;;;4426240;28;659051;-85
2021/03/26 04:38:30;;;;;;;159.57;49.97;;;0.10;99.90;;;;;;4400926;28;658741;-84
2021/03/26 04:41:29;;;;;;;167.03;52.57;;;0.10;99.90;;;;;;4412172;28;658937;-84
2021/03/26 04:44:20;;;;;;;149.77;49.90;;;0.10;99.90;;;;;;4409499;28;658620;-85
2021/03/26 04:47:10;;;;;;;169.13;52.40;;;0.10;99.90;;;;;;4405933;28;658979;-85
2021/03/26 04:49:58;;;;;;;159.07;51.37;;;0.10;99.90;;;;;;4382969;28;658756;-84
2021/03/26 04:52:48;;;;;;;169.10;53.53;;;0.20;99.90;;;;;;4451896;28;659189;-85
2021/03/26 04:55:38;;;;;;;162.83;53.53;;;0.30;99.90;;;;;;4419869;28;659698;-85
2021/03/26 04:58:27;;;;;;;155.20;52.47;;;0.30;99.90;;;;;;4422923;28;659616;-85
2021/03/26 05:01:14;;;;;;;166.10;53.60;;;0.30;99.90;;;;;;4395799;28;660238;-85
2021/03/26 05:04:05;;;;;;;165.17;53.27;;;0.40;99.90;;;;;;4416320;28;658377;-85
2021/03/26 05:06:54;;;;;;;152.57;51.10;;;0.50;99.90;;;;;;4395172;28;658509;-85
2021/03/26 05:09:42;;;;;;;151.20;50.30;;;0.50;99.90;;;;;;4448573;28;658835;-85
2021/03/26 05:12:30;;;;;;;146.73;50.53;;;0.50;99.90;;;;;;4397463;28;659111;-85
2021/03/26 05:15:22;;;;;;;162.90;53.80;;;0.60;99.90;;;;;;4407658;28;659281;-85
2021/03/26 05:18:11;;;;;;;159.20;51.53;;;0.70;99.90;;;;;;4391129;28;659039;-85
2021/03/26 05:21:00;;;;;;;166.50;50.80;;;0.80;99.90;;;;;;4395378;28;658724;-85
2021/03/26 05:23:50;;;;;;;148.70;48.50;;;0.90;99.90;;;;;;4405992;28;659255;-85
2021/03/26 05:26:38;;;;;;;159.77;50.57;;;1.00;99.90;;;;;;4398236;28;658950;-85
2021/03/26 05:29:25;;;;;;;152.33;49.27;;;1.10;99.90;;;;;;4445913;28;659087;-85
2021/03/26 05:32:15;;;;;;;158.93;49.63;;;1.20;99.90;;;;;;4408908;28;659121;-85
2021/03/26 05:35:03;;;;;;;154.80;50.27;;;1.30;99.90;;;;;;4432811;28;658768;-86
2021/03/26 05:37:59;;;;;;;151.27;50.43;;;1.40;99.90;;;;;;4409433;28;658730;-86
2021/03/26 05:41:15;;;;;;;158.83;52.20;;;1.50;99.90;;;;;;4420768;28;658790;-87
2021/03/26 05:44:45;;;;;;;148.70;48.87;;;1.70;99.90;;;;;;4420924;28;658468;-85
2021/03/26 05:47:38;;;;;;;152.37;49.77;;;1.80;99.90;;;;;;4420644;28;658717;-87
2021/03/26 05:50:31;;;;;;;156.27;51.83;;;2.00;99.90;;;;;;4391854;28;659218;-86
2021/03/26 05:53:24;;;;;;;162.50;53.63;;;2.10;99.90;;;;;;4395375;28;659070;-87
2021/03/26 05:56:21;;;;;;;168.27;54.13;;;2.30;99.90;;;;;;4405881;28;659276;-87
2021/03/26 05:59:28;;;;;;;179.47;56.87;;;2.40;99.90;;;;;;4409791;28;658569;-88
2021/03/26 06:02:41;;;;;;;171.20;56.13;;;2.60;99.90;;;;;;4401839;28;658823;-88
2021/03/26 06:06:15;;;;;;;222.93;74.97;;;2.70;99.90;;;;;;4407004;28;658913;-88
2021/03/26 06:09:30;;;;;;;200.30;63.03;;;2.90;99.90;;;;;;4417922;28;658966;-87
2021/03/26 06:13:02;;;;;;;212.15;69.78;;;3.00;99.90;;;;;;4402259;28;659051;-86
2021/03/26 06:16:25;;;;;;;227.93;76.60;;;3.20;99.90;;;;;;4339039;28;658837;-88
2021/03/26 06:19:51;;;;;;;208.40;70.90;;;3.30;99.90;;;;;;4273643;29;658930;-86
2021/03/26 06:22:58;;;;;;;394.60;125.63;;;3.40;99.90;;;;;;4283799;29;658656;-88
2021/03/26 06:26:06;;;;;;;253.20;83.47;;;3.60;99.90;;;;;;4291335;29;660038;-88
2021/03/26 06:28:55;;;;;;;420.83;133.87;;;3.80;99.90;;;;;;4292340;29;658441;-88
2021/03/26 06:32:08;;;;;;;318.33;106.93;;;4.00;99.90;;;;;;4291167;29;659572;-87
2021/03/26 06:35:20;;;;;;;240.70;81.30;;;4.20;99.90;;;;;;4290497;29;661002;-88
2021/03/26 06:38:31;;;;;;;191.27;71.13;;;4.50;99.90;;;;;;4211254;29;659111;-87
2021/03/26 06:41:25;;;;;;;170.67;63.93;;;4.70;99.90;;;;;;4229056;29;659338;-88
2021/03/26 06:44:30;;;;;;;154.67;59.50;;;5.00;99.90;;;;;;4218347;29;659273;-87
2021/03/26 06:47:20;;;;;;;159.75;59.40;;;5.30;99.90;;;;;;4220398;29;658983;-87
2021/03/26 06:50:17;;;;;;;172.70;65.60;;;5.60;99.90;;;;;;4245162;29;658504;-86
2021/03/26 06:53:10;;;;;;;172.13;61.50;;;5.80;99.90;;;;;;4219296;29;658700;-87
2021/03/26 06:56:32;;;;;;;168.33;63.80;;;6.00;99.90;;;;;;4273472;29;659594;-88
2021/03/26 06:59:44;;;;;;;161.97;57.50;;;6.30;99.90;;;;;;4306677;28;659176;-88
2021/03/26 07:02:58;;;;;;;150.90;62.17;;;6.60;99.90;;;;;;4324575;28;658981;-87
2021/03/26 07:06:03;;;;;;;147.00;57.50;;;6.90;99.90;;;;;;4337934;28;658689;-88
2021/03/26 07:09:09;;;;;;;142.73;56.13;;;7.20;99.90;;;;;;4335099;28;659038;-89
2021/03/26 07:12:05;;;;;;;141.87;56.57;;;7.50;99.90;;;;;;4334742;28;658729;-88
2021/03/26 07:14:59;;;;;;;137.27;54.77;;;7.60;99.90;;;;;;4328389;28;658903;-85
2021/03/26 07:18:10;;;;;;;147.53;59.60;;;7.80;99.90;;;;;;4353560;28;658538;-88
2021/03/26 07:21:20;;;;;;;147.97;58.20;;;8.00;99.90;;;;;;4428574;28;658904;-86
2021/03/26 07:24:35;;;;;;;142.13;56.55;;;8.30;99.90;;;;;;4393349;28;658507;-86
2021/03/26 07:27:30;;;;;;;135.27;57.03;;;8.40;99.90;;;;;;4371911;28;658683;-86
2021/03/26 07:30:28;;;;;;;125.77;53.80;;;8.50;99.90;;;;;;4418262;28;658389;-88
2021/03/26 07:33:20;;;;;;;132.37;53.37;;;8.60;99.90;;;;;;4428189;28;658639;-89
2021/03/26 07:36:12;;;;;;;118.30;50.30;;;8.80;99.90;;;;;;4426940;28;658910;-86
2021/03/26 07:39:22;;;;;;;111.87;48.63;;;9.00;99.90;;;;;;4391776;28;659830;-89
2021/03/26 07:42:20;;;;;;;114.90;48.63;;;9.30;99.90;;;;;;4390516;28;658997;-88
2021/03/26 07:45:47;;;;;;;107.87;47.33;;;9.50;99.90;;;;;;4410877;28;658191;-86
2021/03/26 07:48:43;;;;;;;101.23;44.57;;;9.70;99.90;;;;;;4336640;28;658430;-89
2021/03/26 07:51:31;;;;;;;121.17;51.47;;;9.90;99.90;;;;;;4324090;28;659187;-89
2021/03/26 07:54:51;;;;;;;116.13;49.43;;;10.10;99.90;;;;;;4328812;28;659392;-88
2021/03/26 07:58:17;;;;;;;96.40;43.17;;;10.40;99.90;;;;;;4323936;28;660645;-87
2021/03/26 08:01:14;;;;;;;92.43;41.53;;;10.90;99.90;;;;;;4239550;29;658466;-86
2021/03/26 08:04:11;;;;;;;101.60;44.23;;;10.90;99.90;;;;;;4225023;29;658862;-87
2021/03/26 08:07:29;;;;;;;104.40;45.78;;;11.10;99.90;;;;;;4239547;29;660104;-87
2021/03/26 08:10:27;;;;;;;94.40;43.90;;;11.20;99.90;;;;;;4224283;29;659783;-88
2021/03/26 08:13:36;;;;;;;94.03;42.53;;;11.30;99.90;;;;;;4221539;29;659295;-88
2021/03/26 08:16:41;;;;;;;97.97;43.73;;;11.60;99.90;;;;;;4240824;29;658983;-86
2021/03/26 08:19:31;;;;;;;103.43;44.87;;;11.70;99.90;;;;;;4406374;29;658876;-87
2021/03/26 08:22:21;;;;;;;96.70;44.13;;;11.90;99.90;;;;;;4860965;29;20203;-88
2021/03/26 08:25:25;;;;;;;99.17;46.27;;;11.90;99.90;;;;;;4872202;29;20263;-87
2021/03/26 08:28:26;;;;;;;104.60;46.83;;;12.20;99.90;;;;;;4914995;29;20223;-87
2021/03/26 08:31:21;;;;;;;99.57;43.27;;;12.40;99.90;;;;;;4920440;29;20231;-87
2021/03/26 08:34:38;;;;;;;100.20;44.23;;;12.60;99.90;;;;;;4917923;29;20197;-87
2021/03/26 08:37:28;;;;;;;85.67;37.63;;;12.80;99.90;;;;;;4918047;29;20217;-88
2021/03/26 08:40:17;;;;;;;88.37;41.63;;;12.90;98.30;;;;;;5048934;28;20204;-87
2021/03/26 08:43:04;;;;;;;94.87;43.07;;;13.00;97.90;;;;;;5074192;28;20217;-87
2021/03/26 08:45:57;;;;;;;96.90;41.47;;;13.00;98.10;;;;;;5085552;28;20229;-87
2021/03/26 08:48:47;;;;;;;95.27;42.00;;;13.20;97.90;;;;;;5077855;28;20217;-87
2021/03/26 08:51:52;;;;;;;97.70;42.30;;;13.30;95.90;;;;;;4419520;28;657593;-86
2021/03/26 08:54:55;;;;;;;94.00;42.13;;;13.40;96.30;;;;;;4395232;28;658554;-87
2021/03/26 08:57:49;;;;;;;92.20;41.07;;;13.50;95.10;;;;;;4379226;28;659068;-84
2021/03/26 09:00:44;;;;;;;89.43;41.10;;;13.50;95.20;;;;;;4400400;28;659010;-87
2021/03/26 09:03:36;;;;;;;88.30;41.57;;;13.60;95.40;;;;;;4404199;28;658780;-88
2021/03/26 09:06:30;;;;;;;93.13;43.30;;;13.70;94.00;;;;;;4398974;28;658793;-87
2021/03/26 09:09:50;;;;;;;93.53;42.73;;;13.80;93.20;;;;;;4408405;28;659038;-86
2021/03/26 09:12:47;;;;;;;94.13;43.63;;;13.70;92.90;;;;;;4411511;28;658638;-85
2021/03/26 09:15:45;;;;;;;87.37;41.53;;;14.00;92.90;;;;;;4424896;28;658732;-86
2021/03/26 09:18:52;;;;;;;89.80;41.90;;;14.30;92.30;;;;;;4383129;28;658773;-85
2021/03/26 09:21:43;;;;;;;82.80;40.90;;;14.40;91.00;;;;;;4424211;28;658548;-87
2021/03/26 09:24:54;;;;;;;84.10;39.80;;;14.60;91.60;;;;;;4399552;28;658959;-87
2021/03/26 09:27:45;;;;;;;78.47;38.87;;;14.90;89.10;;;;;;4412532;28;658933;-88
2021/03/26 09:30:34;;;;;;;83.77;40.53;;;15.10;89.10;;;;;;4380850;28;659237;-85
2021/03/26 09:33:21;;;;;;;84.10;40.73;;;15.20;85.50;;;;;;4407196;28;658545;-87
2021/03/26 09:36:10;;;;;;;78.17;37.27;;;15.20;85.40;;;;;;4407361;28;658520;-87
2021/03/26 09:39:18;;;;;;;84.83;41.03;;;15.60;83.80;;;;;;4434927;28;658808;-84
2021/03/26 09:42:24;;;;;;;78.67;38.07;;;15.60;83.20;;;;;;4410155;28;658777;-87
2021/03/26 09:45:17;;;;;;;74.57;38.43;;;15.80;78.70;;;;;;4397436;28;659083;-87
2021/03/26 09:48:46;;;;;;;76.97;38.77;;;15.70;77.00;;;;;;4413037;28;658686;-87
2021/03/26 09:51:45;;;;;;;79.17;36.70;;;15.90;81.00;;;;;;4402737;28;659490;-87
2021/03/26 09:54:38;;;;;;;74.37;37.37;;;16.20;76.80;;;;;;4395129;28;659153;-84
2021/03/26 09:57:31;;;;;;;77.53;36.70;;;16.30;76.90;;;;;;4409493;28;659978;-87
2021/03/26 10:00:40;;;;;;;70.97;36.23;;;16.80;75.80;;;;;;4412695;28;658913;-85
2021/03/26 10:03:50;;;;;;;74.43;34.70;;;17.00;73.60;;;;;;4394374;28;659017;-85
2021/03/26 10:06:41;;;;;;;72.03;36.07;;;17.20;68.70;;;;;;4441008;28;658419;-88
2021/03/26 10:09:36;;;;;;;71.90;35.17;;;17.30;71.40;;;;;;4394795;28;658700;-86
2021/03/26 10:12:24;;;;;;;72.03;36.70;;;17.10;69.90;;;;;;4424418;28;659568;-87
2021/03/26 10:15:20;;;;;;;72.97;37.00;;;17.30;69.10;;;;;;4451324;28;658707;-86
2021/03/26 10:18:11;;;;;;;74.10;35.77;;;17.50;69.00;;;;;;4394627;28;658778;-85
2021/03/26 10:21:09;;;;;;;76.38;37.10;;;17.80;69.10;;;;;;4402936;28;658234;-86
2021/03/26 10:24:06;;;;;;;67.30;35.00;;;17.70;65.00;;;;;;4405973;28;659723;-86
2021/03/26 10:26:59;;;;;;;70.80;32.90;;;17.80;63.60;;;;;;4419805;28;658745;-86
2021/03/26 10:29:48;;;;;;;68.53;34.43;;;17.90;64.60;;;;;;4429618;28;658863;-87
2021/03/26 10:32:35;;;;;;;63.60;32.03;;;17.70;62.80;;;;;;4404311;28;659080;-87
2021/03/26 10:35:24;;;;;;;65.30;32.73;;;17.90;61.20;;;;;;4438952;28;659154;-87
2021/03/26 10:38:13;;;;;;;61.50;29.03;;;18.20;62.00;;;;;;4397524;28;659558;-86
2021/03/26 10:41:04;;;;;;;69.03;35.10;;;18.40;59.70;;;;;;4395339;28;658880;-87
2021/03/26 10:44:02;;;;;;;65.67;33.70;;;18.30;59.60;;;;;;4393380;28;658614;-86
2021/03/26 10:46:50;;;;;;;63.07;30.50;;;18.50;63.30;;;;;;4412775;28;659291;-87
2021/03/26 10:49:39;;;;;;;59.50;31.17;;;18.90;59.00;;;;;;4417879;28;658907;-85
2021/03/26 10:52:31;;;;;;;65.10;27.30;;;18.50;58.20;;;;;;4411886;28;659145;-86
2021/03/26 10:55:20;;;;;;;58.17;28.30;;;18.00;59.10;;;;;;4392461;28;659210;-86
2021/03/26 10:58:10;;;;;;;65.07;30.87;;;17.90;59.30;;;;;;4408900;28;658815;-85
2021/03/26 11:01:10;;;;;;;62.53;27.93;;;17.50;61.00;;;;;;4411332;28;659228;-85
2021/03/26 11:03:59;;;;;;;61.53;28.73;;;17.60;59.20;;;;;;4427114;28;658745;-85
2021/03/26 11:06:47;;;;;;;27.93;12.70;;;17.50;59.50;;;;;;4436525;28;658988;-87
2021/03/26 11:09:39;;;;;;;53.33;26.17;;;17.10;59.60;;;;;;4410483;28;659349;-86
2021/03/26 11:12:29;;;;;;;47.53;24.87;;;17.00;59.40;;;;;;4392864;28;659008;-87
2021/03/26 11:15:17;;;;;;;54.20;26.33;;;17.20;59.70;;;;;;4394532;28;658416;-87
2021/03/26 11:18:10;;;;;;;47.67;23.70;;;17.20;59.10;;;;;;4418234;28;659218;-85
2021/03/26 11:20:58;;;;;;;50.43;25.87;;;17.60;60.00;;;;;;4408105;28;659498;-85
2021/03/26 11:23:54;;;;;;;48.93;25.30;;;17.70;59.50;;;;;;4427031;28;659571;-87
2021/03/26 11:26:45;;;;;;;48.43;24.60;;;18.30;57.60;;;;;;4405282;28;659663;-86
2021/03/26 11:29:33;;;;;;;44.07;22.87;;;18.90;56.40;;;;;;4401839;28;658551;-85
2021/03/26 11:32:23;;;;;;;58.10;27.73;;;19.10;57.50;;;;;;4427467;28;658758;-85
2021/03/26 11:35:12;;;;;;;49.13;24.07;;;18.90;56.50;;;;;;4407144;28;659006;-84
2021/03/26 11:38:01;;;;;;;49.87;24.60;;;18.90;55.60;;;;;;4403123;28;658864;-85
2021/03/26 11:40:54;;;;;;;53.97;27.83;;;18.60;55.60;;;;;;4393476;28;658466;-86
2021/03/26 11:43:43;;;;;;;50.97;27.90;;;18.10;55.60;;;;;;4409602;28;658904;-86
2021/03/26 11:46:30;;;;;;;45.23;23.67;;;18.00;58.80;;;;;;4400365;28;659059;-86
2021/03/26 11:49:20;;;;;;;52.87;28.23;;;18.00;57.10;;;;;;4404002;28;658820;-85
2021/03/26 11:52:10;;;;;;;50.40;25.80;;;18.20;56.70;;;;;;4404574;28;658716;-85
2021/03/26 11:55:05;;;;;;;60.10;28.13;;;18.90;57.70;;;;;;4416578;28;659125;-85
2021/03/26 11:57:54;;;;;;;46.50;24.63;;;19.10;56.30;;;;;;4444896;28;658592;-85
2021/03/26 12:00:42;;;;;;;43.97;21.83;;;19.30;55.40;;;;;;4442307;28;658942;-85
2021/03/26 12:03:33;;;;;;;51.00;25.50;;;19.20;54.30;;;;;;4421778;28;658699;-85
2021/03/26 12:06:24;;;;;;;43.47;22.60;;;19.30;55.00;;;;;;4418764;28;659201;-86
2021/03/26 12:09:14;;;;;;;49.40;24.67;;;19.50;54.10;;;;;;4415211;28;658748;-86
2021/03/26 12:12:10;;;;;;;46.67;23.27;;;19.60;54.00;;;;;;4414002;28;659974;-86
2021/03/26 12:15:01;;;;;;;45.90;22.40;;;19.90;55.40;;;;;;4401346;28;659008;-85
2021/03/26 12:17:49;;;;;;;45.67;22.77;;;19.50;53.30;;;;;;4414939;28;658929;-84
2021/03/26 12:20:37;;;;;;;46.50;25.07;;;19.10;54.30;;;;;;4434639;28;659784;-86
2021/03/26 12:23:32;;;;;;;47.07;24.43;;;19.10;53.70;;;;;;4412684;28;658942;-85
2021/03/26 12:26:27;;;;;;;38.13;19.63;;;19.60;56.10;;;;;;4418686;28;658467;-85
2021/03/26 12:29:24;;;;;;;43.77;24.00;;;20.20;53.10;;;;;;4375961;28;659709;-84
2021/03/26 12:32:14;;;;;;;43.60;23.17;;;20.20;52.90;;;;;;4411373;28;658877;-85
2021/03/26 12:35:22;;;;;;;44.30;23.77;;;20.60;53.20;;;;;;4411851;28;658943;-87
2021/03/26 12:38:12;;;;;;;44.27;24.03;;;21.30;53.80;;;;;;4392865;28;658945;-86
2021/03/26 12:41:15;;;;;;;49.13;25.03;;;20.40;53.90;;;;;;4415202;28;658819;-85
2021/03/26 12:44:06;;;;;;;41.20;23.63;;;20.10;52.30;;;;;;4413837;28;659021;-86
2021/03/26 12:47:10;;;;;;;40.77;22.57;;;20.30;52.20;;;;;;4403878;28;658434;-85
2021/03/26 12:50:08;;;;;;;41.00;19.53;;;19.90;52.60;;;;;;4413446;28;658770;-85
2021/03/26 12:53:01;;;;;;;47.83;24.70;;;18.90;54.30;;;;;;4409957;28;658685;-86
2021/03/26 12:55:57;;;;;;;46.80;23.90;;;18.90;53.30;;;;;;4413911;28;658506;-86
2021/03/26 12:58:56;;;;;;;43.57;23.73;;;19.00;53.00;;;;;;4409288;28;658872;-88
2021/03/26 13:01:46;;;;;;;46.50;24.67;;;18.60;54.70;;;;;;4416053;28;658688;-87
2021/03/26 13:04:39;;;;;;;45.93;24.00;;;18.90;54.60;;;;;;4411996;28;658962;-87
2021/03/26 13:07:42;;;;;;;39.90;19.10;;;18.40;54.20;;;;;;4413721;28;658484;-87
2021/03/26 13:10:49;;;;;;;42.13;20.83;;;18.10;54.00;;;;;;4411684;28;658752;-87
2021/03/26 13:13:38;;;;;;;44.70;22.37;;;18.00;56.70;;;;;;4411374;28;659257;-87
2021/03/26 13:16:44;;;;;;;47.13;22.87;;;17.70;55.10;;;;;;4400070;28;658917;-87
2021/03/26 13:19:33;;;;;;;44.07;22.70;;;17.60;55.10;;;;;;4405341;28;658749;-87
2021/03/26 13:22:25;;;;;;;40.87;19.60;;;17.50;55.40;;;;;;4410818;28;659764;-85
2021/03/26 13:25:24;;;;;;;43.07;23.87;;;17.70;55.40;;;;;;4416714;28;658783;-84
2021/03/26 13:28:13;;;;;;;50.80;22.83;;;17.20;56.30;;;;;;4422569;28;659782;-86
2021/03/26 13:31:02;;;;;;;45.17;22.23;;;16.90;56.20;;;;;;4395820;28;659383;-87
2021/03/26 13:33:50;;;;;;;44.47;23.60;;;16.80;57.10;;;;;;4403649;28;658627;-86
2021/03/26 13:36:39;;;;;;;41.13;21.27;;;16.90;57.20;;;;;;4413568;28;658974;-86
2021/03/26 13:39:36;;;;;;;42.53;23.00;;;17.30;57.40;;;;;;4426171;28;658739;-88
2021/03/26 13:42:26;;;;;;;44.57;23.07;;;18.20;57.70;;;;;;4393105;28;659200;-87
2021/03/26 13:45:13;;;;;;;36.20;19.33;;;19.50;56.70;;;;;;4400256;28;658842;-86
2021/03/26 13:48:01;;;;;;;43.77;22.37;;;20.20;53.00;;;;;;4432395;28;658868;-88
2021/03/26 13:50:57;;;;;;;38.40;21.20;;;20.40;52.50;;;;;;4395108;28;658654;-88
2021/03/26 13:53:46;;;;;;;48.60;22.93;;;20.40;52.50;;;;;;4415485;28;658980;-88
2021/03/26 13:56:38;;;;;;;43.43;23.30;;;20.30;52.30;;;;;;4430243;28;658973;-86
2021/03/26 13:59:31;;;;;;;41.43;22.00;;;19.90;52.00;;;;;;4421453;28;659129;-86
2021/03/26 14:02:24;;;;;;;42.97;22.27;;;19.10;52.70;;;;;;4395997;28;659280;-86
2021/03/26 14:05:21;;;;;;;37.00;20.17;;;18.50;54.40;;;;;;4394568;28;658847;-88
2021/03/26 14:08:12;;;;;;;40.37;22.10;;;18.00;55.30;;;;;;4372690;28;659302;-87
2021/03/26 14:11:12;;;;;;;38.33;20.23;;;17.70;57.00;;;;;;4392137;28;659119;-87
2021/03/26 14:14:07;;;;;;;39.83;20.97;;;17.50;56.10;;;;;;4390028;28;659037;-86
2021/03/26 14:16:57;;;;;;;45.70;23.03;;;17.20;56.20;;;;;;4390440;28;658769;-84
2021/03/26 14:19:46;;;;;;;68.53;31.20;;;17.00;57.60;;;;;;4403977;28;658449;-85
2021/03/26 14:22:36;;;;;;;52.23;26.23;;;17.60;58.90;;;;;;4411274;28;658600;-85
2021/03/26 14:25:26;;;;;;;42.77;21.47;;;18.90;57.80;;;;;;4411842;28;658488;-84
2021/03/26 14:28:16;;;;;;;34.20;18.80;;;20.00;54.70;;;;;;4399719;28;658378;-85
2021/03/26 14:31:04;;;;;;;41.00;20.33;;;20.60;52.70;;;;;;4409232;28;658602;-84